Time;durP1;ratioP1;P1;durP2;ratioP2;P2;SDS_P1;SDS_P2;PMS_P1;PMS_P2;Temp;Humidity;BMP_temperature;BMP_pressure;BME280_temperature;BME280_humidity;BME280_pressure;Samples;Min_cycle;Max_cycle;Signal;HPM_P1;HPM_P2
2022/05/26 00:01:16;;;;;;;1.73;1.13;;;16.90;99.90;;;;;;5116670;28;20607;-70
2022/05/26 00:03:45;;;;;;;1.50;1.00;;;16.90;99.90;;;;;;5116734;28;20612;-70
2022/05/26 00:06:14;;;;;;;1.10;1.00;;;16.90;99.90;;;;;;5117571;28;20633;-70
2022/05/26 00:08:41;;;;;;;2.33;1.10;;;17.00;99.90;;;;;;5118108;28;21221;-70
2022/05/26 00:11:12;;;;;;;1.00;1.00;;;17.00;99.90;;;;;;5117929;28;20604;-70
2022/05/26 00:13:40;;;;;;;1.40;1.30;;;17.00;99.90;;;;;;5116867;28;20637;-70
2022/05/26 00:16:08;;;;;;;1.00;0.90;;;17.10;99.90;;;;;;5116923;28;20627;-71
2022/05/26 00:18:34;;;;;;;2.10;1.10;;;17.20;99.90;;;;;;5116793;28;20616;-70
2022/05/26 00:21:01;;;;;;;5.20;1.30;;;17.20;99.90;;;;;;5116832;28;20600;-70
2022/05/26 00:23:27;;;;;;;4.73;1.83;;;17.20;99.90;;;;;;5117230;28;20604;-70
2022/05/26 00:25:54;;;;;;;2.10;1.10;;;17.20;99.90;;;;;;5116718;28;20631;-70
2022/05/26 00:28:20;;;;;;;1.40;1.20;;;17.30;99.90;;;;;;5116635;28;21155;-70
2022/05/26 00:30:48;;;;;;;1.10;1.00;;;17.20;99.90;;;;;;5116765;28;20620;-70
2022/05/26 00:33:16;;;;;;;1.43;1.33;;;17.20;99.90;;;;;;5117030;27;20635;-70
2022/05/26 00:35:42;;;;;;;2.10;1.13;;;17.20;99.90;;;;;;5116623;28;20608;-70
2022/05/26 00:38:12;;;;;;;1.03;1.00;;;17.30;99.90;;;;;;5116540;28;20612;-70
2022/05/26 00:40:39;;;;;;;2.17;1.03;;;17.20;99.90;;;;;;5115668;28;20656;-70
2022/05/26 00:43:07;;;;;;;1.27;1.17;;;17.20;99.90;;;;;;5115517;28;20607;-70
2022/05/26 00:45:47;;;;;;;4.80;1.20;;;17.20;99.90;;;;;;5116643;28;20608;-70
2022/05/26 00:48:16;;;;;;;1.73;1.00;;;17.10;99.90;;;;;;5116973;28;20575;-70
2022/05/26 00:50:50;;;;;;;1.73;1.20;;;17.10;99.90;;;;;;5115799;28;21025;-70
2022/05/26 00:53:37;;;;;;;1.10;1.00;;;17.10;99.90;;;;;;5115754;28;20591;-70
2022/05/26 00:56:28;;;;;;;2.03;1.53;;;17.10;99.90;;;;;;5116871;28;20580;-70
2022/05/26 00:59:02;;;;;;;1.10;1.00;;;17.00;99.90;;;;;;5106799;28;20663;-70
2022/05/26 01:01:29;;;;;;;3.33;1.20;;;17.00;99.90;;;;;;5116602;28;21099;-73
2022/05/26 01:04:00;;;;;;;1.30;1.20;;;17.00;99.90;;;;;;5116462;28;20950;-74
2022/05/26 01:06:36;;;;;;;1.77;1.00;;;17.00;99.90;;;;;;5116573;28;20620;-74
2022/05/26 01:09:05;;;;;;;3.23;1.30;;;17.00;99.90;;;;;;5116158;28;20579;-74
2022/05/26 01:11:34;;;;;;;2.03;1.00;;;17.00;99.90;;;;;;5115916;28;20757;-74
2022/05/26 01:14:31;;;;;;;1.30;1.20;;;16.90;99.90;;;;;;5116226;28;20616;-74
2022/05/26 01:17:26;;;;;;;2.23;1.20;;;16.90;99.90;;;;;;5115494;28;20632;-74
2022/05/26 01:20:20;;;;;;;2.57;1.07;;;16.80;99.90;;;;;;5108656;28;20675;-74
2022/05/26 01:23:06;;;;;;;3.90;1.13;;;16.90;99.90;;;;;;5116401;28;20564;-74
2022/05/26 01:25:53;;;;;;;2.73;1.20;;;16.90;99.90;;;;;;5115747;28;20955;-74
2022/05/26 01:28:38;;;;;;;5.30;1.13;;;16.80;99.90;;;;;;5115908;28;21119;-74
2022/05/26 01:31:38;;;;;;;1.00;0.90;;;16.70;99.90;;;;;;5114553;28;20580;-73
2022/05/26 01:34:13;;;;;;;1.10;1.00;;;16.60;99.90;;;;;;5115607;28;20931;-74
2022/05/26 01:36:51;;;;;;;1.37;1.00;;;16.60;99.90;;;;;;5116317;28;20960;-74
2022/05/26 01:39:34;;;;;;;1.53;0.90;;;16.60;99.90;;;;;;5115711;28;20631;-74
2022/05/26 01:42:25;;;;;;;4.63;1.20;;;16.50;99.90;;;;;;5115818;28;20579;-74
2022/05/26 01:45:04;;;;;;;1.73;0.93;;;16.50;99.90;;;;;;5116434;28;20573;-73
2022/05/26 01:47:43;;;;;;;7.03;1.20;;;16.40;99.90;;;;;;5116809;28;20600;-73
2022/05/26 01:50:29;;;;;;;2.37;1.10;;;16.30;99.90;;;;;;5116346;28;21011;-72
2022/05/26 01:53:16;;;;;;;1.73;1.00;;;16.20;99.90;;;;;;5115553;28;21177;-74
2022/05/26 01:55:55;;;;;;;4.90;0.80;;;16.10;99.90;;;;;;5115235;28;20569;-73
2022/05/26 01:58:33;;;;;;;0.90;0.90;;;16.00;99.90;;;;;;5115970;28;20584;-73
2022/05/26 02:01:03;;;;;;;1.30;1.20;;;15.90;99.90;;;;;;5115238;28;20987;-73
2022/05/26 02:03:33;;;;;;;1.40;0.90;;;15.80;99.90;;;;;;5115311;28;20612;-74
2022/05/26 02:06:05;;;;;;;1.10;0.93;;;15.70;99.90;;;;;;5115359;28;20655;-73
2022/05/26 02:08:48;;;;;;;3.27;1.00;;;15.60;99.90;;;;;;5115611;28;20648;-73
2022/05/26 02:11:17;;;;;;;1.43;1.03;;;15.50;99.90;;;;;;5115997;28;20619;-74
2022/05/26 02:13:52;;;;;;;0.80;0.80;;;15.40;99.90;;;;;;5116405;28;20616;-73
2022/05/26 02:16:43;;;;;;;2.27;1.00;;;15.40;99.90;;;;;;5114836;28;20602;-73
2022/05/26 02:19:14;;;;;;;1.73;0.90;;;15.30;99.90;;;;;;5115604;28;21289;-73
2022/05/26 02:22:34;;;;;;;1.30;1.20;;;15.30;99.90;;;;;;5115425;28;20612;-73
2022/05/26 02:25:06;;;;;;;2.07;0.90;;;15.30;99.90;;;;;;5052269;28;20609;-73
2022/05/26 02:27:33;;;;;;;1.17;0.80;;;15.20;99.90;;;;;;5052972;28;20591;-73
2022/05/26 02:30:01;;;;;;;0.90;0.90;;;15.20;99.90;;;;;;5075354;28;20616;-73
2022/05/26 02:32:37;;;;;;;2.47;1.80;;;15.20;99.90;;;;;;5115015;28;20595;-73
2022/05/26 02:35:12;;;;;;;1.93;0.93;;;15.20;99.90;;;;;;5115046;28;20604;-73
2022/05/26 02:37:41;;;;;;;5.23;1.00;;;15.20;99.90;;;;;;5113914;28;20612;-73
2022/05/26 02:40:08;;;;;;;1.50;0.90;;;15.20;99.90;;;;;;5116048;28;20659;-73
2022/05/26 02:42:47;;;;;;;1.60;0.80;;;15.10;99.90;;;;;;5115319;28;21185;-73
2022/05/26 02:45:19;;;;;;;2.00;1.20;;;15.10;99.90;;;;;;5114615;28;20568;-73
2022/05/26 02:48:20;;;;;;;2.30;1.07;;;15.00;99.90;;;;;;5113100;28;20573;-73
2022/05/26 02:51:24;;;;;;;1.37;1.10;;;15.00;99.90;;;;;;5114532;28;20740;-73
2022/05/26 02:54:08;;;;;;;0.80;0.80;;;14.90;99.90;;;;;;5114006;27;20621;-73
2022/05/26 02:56:52;;;;;;;5.60;1.00;;;14.90;99.90;;;;;;5113186;28;20639;-73
2022/05/26 02:59:52;;;;;;;2.07;0.90;;;14.80;99.90;;;;;;5114426;28;20631;-73
2022/05/26 03:02:34;;;;;;;1.20;1.10;;;14.80;99.90;;;;;;5112193;28;20621;-73
2022/05/26 03:05:11;;;;;;;0.80;0.80;;;14.80;99.90;;;;;;5114203;28;20672;-73
2022/05/26 03:07:42;;;;;;;1.63;0.80;;;14.80;99.90;;;;;;5114229;28;20644;-73
2022/05/26 03:10:10;;;;;;;1.20;1.10;;;14.80;99.90;;;;;;5114641;28;20620;-74
2022/05/26 03:12:36;;;;;;;1.00;0.90;;;14.80;99.90;;;;;;5112960;28;20635;-74
2022/05/26 03:15:06;;;;;;;2.27;1.20;;;14.80;99.90;;;;;;5116755;28;20613;-73
2022/05/26 03:17:32;;;;;;;3.50;1.10;;;14.80;99.90;;;;;;5115474;28;20643;-74
2022/05/26 03:19:59;;;;;;;1.13;1.03;;;14.80;99.90;;;;;;5113361;28;20624;-74
2022/05/26 03:22:25;;;;;;;1.00;0.90;;;14.80;99.90;;;;;;5114189;28;20963;-74
2022/05/26 03:24:52;;;;;;;2.00;0.90;;;14.80;99.90;;;;;;5113859;28;20965;-74
2022/05/26 03:27:19;;;;;;;3.53;1.00;;;14.80;99.90;;;;;;5113783;28;20704;-74
2022/05/26 03:29:45;;;;;;;14.60;2.20;;;14.70;99.90;;;;;;5114387;28;20648;-74
2022/05/26 03:32:12;;;;;;;1.17;0.90;;;14.60;99.90;;;;;;5114167;28;21163;-74
2022/05/26 03:42:53;;;;;;;4.30;0.93;;;14.50;99.90;;;;;;5113863;28;20580;-74
2022/05/26 03:45:22;;;;;;;3.80;1.17;;;14.40;99.90;;;;;;5115309;28;20605;-74
2022/05/26 03:47:49;;;;;;;3.00;0.93;;;14.50;99.90;;;;;;5115199;28;21163;-74
2022/05/26 03:50:16;;;;;;;1.87;1.10;;;14.60;99.90;;;;;;5115084;28;20624;-74
2022/05/26 03:52:42;;;;;;;1.10;0.87;;;14.60;99.90;;;;;;5114201;28;20637;-74
2022/05/26 03:55:09;;;;;;;1.40;1.00;;;14.60;99.90;;;;;;5114248;28;20590;-74
2022/05/26 03:57:36;;;;;;;2.50;1.73;;;14.70;99.90;;;;;;5114422;28;21234;-74
2022/05/26 04:00:04;;;;;;;2.10;0.90;;;14.60;99.90;;;;;;5112889;28;21226;-74
2022/05/26 04:02:34;;;;;;;2.37;1.07;;;14.60;99.90;;;;;;5114497;28;20609;-74
2022/05/26 04:05:00;;;;;;;3.10;0.97;;;14.70;99.90;;;;;;5112420;28;20652;-74
2022/05/26 04:07:26;;;;;;;2.30;1.13;;;14.70;99.90;;;;;;5112103;28;20649;-74
2022/05/26 04:09:53;;;;;;;2.10;1.03;;;14.70;99.90;;;;;;5111979;28;21253;-74
2022/05/26 04:12:19;;;;;;;3.90;0.90;;;14.70;99.90;;;;;;5113673;28;20620;-74
2022/05/26 04:14:46;;;;;;;1.83;0.97;;;14.70;99.90;;;;;;5114497;28;20617;-74
2022/05/26 04:17:13;;;;;;;3.40;1.10;;;14.70;99.90;;;;;;5117531;28;20626;-74
2022/05/26 04:19:42;;;;;;;1.00;0.90;;;14.70;99.90;;;;;;5117789;28;20623;-74
2022/05/26 04:22:15;;;;;;;2.10;1.00;;;14.80;99.90;;;;;;5117339;28;20630;-74
2022/05/26 04:24:43;;;;;;;2.70;0.80;;;14.90;99.90;;;;;;5117385;28;20647;-74
2022/05/26 04:27:09;;;;;;;1.80;0.90;;;14.90;99.90;;;;;;5116707;28;20607;-74
2022/05/26 04:29:36;;;;;;;1.57;0.87;;;14.90;99.90;;;;;;5116668;28;21163;-74
2022/05/26 04:32:04;;;;;;;3.80;1.27;;;14.90;99.90;;;;;;5116846;28;20601;-74
2022/05/26 04:34:30;;;;;;;1.93;0.90;;;14.80;99.90;;;;;;5117088;28;20590;-74
2022/05/26 04:36:56;;;;;;;3.10;1.03;;;14.90;99.90;;;;;;5116711;28;20594;-74
2022/05/26 04:39:23;;;;;;;5.60;0.97;;;14.90;99.90;;;;;;5116572;28;20611;-74
2022/05/26 04:41:52;;;;;;;1.50;1.10;;;14.90;99.90;;;;;;5115051;28;20627;-74
2022/05/26 04:44:20;;;;;;;2.10;0.97;;;15.00;99.90;;;;;;5117087;28;20593;-74
2022/05/26 04:46:46;;;;;;;0.90;0.90;;;15.00;99.90;;;;;;5116097;27;20627;-74
2022/05/26 04:49:12;;;;;;;1.33;0.80;;;15.00;99.90;;;;;;5116720;28;20583;-74
2022/05/26 04:51:39;;;;;;;2.10;1.07;;;15.10;99.90;;;;;;5116750;28;20604;-74
2022/05/26 04:54:07;;;;;;;1.20;1.10;;;15.10;99.90;;;;;;5116612;28;20573;-74
2022/05/26 04:56:34;;;;;;;1.73;1.10;;;15.10;99.90;;;;;;5117222;28;20609;-74
2022/05/26 04:59:00;;;;;;;1.03;0.90;;;15.20;99.90;;;;;;5114848;28;20587;-74
2022/05/26 05:01:27;;;;;;;1.13;0.83;;;15.20;99.90;;;;;;5114643;28;21226;-74
2022/05/26 05:03:53;;;;;;;3.07;1.07;;;15.20;99.90;;;;;;5116282;28;20596;-74
2022/05/26 05:06:20;;;;;;;2.23;1.00;;;15.20;99.90;;;;;;5115183;28;20647;-74
2022/05/26 05:08:46;;;;;;;3.20;1.20;;;15.20;99.90;;;;;;5115551;28;20622;-74
2022/05/26 05:11:13;;;;;;;1.37;1.10;;;15.20;99.90;;;;;;5115695;28;20990;-74
2022/05/26 05:13:40;;;;;;;1.23;0.87;;;15.30;99.90;;;;;;5115709;28;20608;-74
2022/05/26 05:16:27;;;;;;;2.50;0.77;;;15.30;99.90;;;;;;5116429;28;20633;-74
2022/05/26 05:18:55;;;;;;;1.00;0.83;;;15.40;99.90;;;;;;5115501;28;20607;-74
2022/05/26 05:21:27;;;;;;;4.07;1.20;;;15.50;99.90;;;;;;5115782;28;20669;-74
2022/05/26 05:24:02;;;;;;;0.80;0.80;;;15.60;99.90;;;;;;5114914;28;20919;-74
2022/05/26 05:26:34;;;;;;;6.27;1.10;;;15.60;99.90;;;;;;5115999;28;20588;-74
2022/05/26 05:29:09;;;;;;;3.50;1.30;;;15.70;99.90;;;;;;5115590;28;20968;-74
2022/05/26 05:31:44;;;;;;;2.70;1.20;;;15.60;99.90;;;;;;5116463;28;20584;-73
2022/05/26 05:34:16;;;;;;;1.27;0.90;;;15.50;99.90;;;;;;5115910;28;20576;-73
2022/05/26 05:36:43;;;;;;;1.20;1.00;;;15.40;99.90;;;;;;5114800;28;21175;-73
2022/05/26 05:39:10;;;;;;;3.43;1.00;;;15.40;99.90;;;;;;5113427;28;20956;-73
2022/05/26 05:41:36;;;;;;;1.60;1.00;;;15.50;99.90;;;;;;5114175;28;20633;-73
2022/05/26 05:44:04;;;;;;;1.70;1.10;;;15.60;99.90;;;;;;5116386;27;20678;-73
2022/05/26 05:46:34;;;;;;;0.80;0.80;;;15.80;99.90;;;;;;5116364;28;20612;-74
2022/05/26 05:49:02;;;;;;;1.30;1.00;;;15.90;99.90;;;;;;5116344;28;20627;-73
2022/05/26 05:51:30;;;;;;;2.90;0.93;;;15.90;99.90;;;;;;5116234;28;20639;-73
2022/05/26 05:53:56;;;;;;;3.53;0.70;;;15.90;99.90;;;;;;5116317;27;20616;-73
2022/05/26 05:56:22;;;;;;;1.67;1.00;;;16.00;99.90;;;;;;5113977;28;20624;-73
2022/05/26 05:58:51;;;;;;;1.93;1.03;;;16.10;99.90;;;;;;5114919;28;20612;-73
2022/05/26 06:01:18;;;;;;;3.10;1.50;;;16.10;99.90;;;;;;5115467;28;20652;-73
2022/05/26 06:03:44;;;;;;;2.50;1.00;;;16.10;99.90;;;;;;5115523;28;20575;-74
2022/05/26 06:06:10;;;;;;;1.87;0.93;;;16.10;99.90;;;;;;5114046;28;20651;-73
2022/05/26 06:08:37;;;;;;;2.67;1.30;;;16.00;99.90;;;;;;5115103;28;20647;-73
2022/05/26 06:11:04;;;;;;;1.73;1.00;;;16.10;99.90;;;;;;5113803;28;20997;-74
2022/05/26 06:13:30;;;;;;;1.83;0.90;;;16.20;99.90;;;;;;5115437;28;21031;-74
2022/05/26 06:15:57;;;;;;;2.13;0.93;;;16.30;99.90;;;;;;5115090;28;20612;-72
2022/05/26 06:18:23;;;;;;;3.70;1.20;;;16.40;99.90;;;;;;5115651;28;20628;-73
2022/05/26 06:20:51;;;;;;;1.00;0.90;;;16.50;99.90;;;;;;5114218;28;20640;-74
2022/05/26 06:23:18;;;;;;;1.30;1.20;;;16.70;99.90;;;;;;5115492;28;20619;-74
2022/05/26 06:25:44;;;;;;;2.83;1.43;;;16.80;99.90;;;;;;5115631;28;20610;-74
2022/05/26 06:30:55;;;;;;;2.50;1.10;;;17.00;99.90;;;;;;5115978;28;20667;-72
2022/05/26 06:38:57;;;;;;;1.90;1.07;;;17.40;99.90;;;;;;5114023;28;21212;-72
2022/05/26 06:44:09;;;;;;;1.37;1.20;;;17.10;99.90;;;;;;5114579;28;20920;-72
2022/05/26 06:46:35;;;;;;;2.07;1.07;;;17.30;99.90;;;;;;5114564;28;20931;-73
2022/05/26 06:49:01;;;;;;;3.43;1.27;;;17.30;99.90;;;;;;5114716;28;21055;-72
2022/05/26 06:51:29;;;;;;;2.33;1.30;;;17.30;99.90;;;;;;5114744;28;20642;-72
2022/05/26 06:53:55;;;;;;;3.93;1.00;;;17.10;99.90;;;;;;5114369;28;20959;-72
2022/05/26 06:56:22;;;;;;;6.90;1.00;;;17.10;99.90;;;;;;5114852;28;20605;-72
2022/05/26 06:58:48;;;;;;;4.13;1.30;;;17.20;99.90;;;;;;5113515;28;21177;-72
2022/05/26 07:01:15;;;;;;;1.57;1.10;;;17.30;99.90;;;;;;5113936;28;20660;-72
2022/05/26 07:03:42;;;;;;;3.50;1.40;;;17.30;99.90;;;;;;5114624;28;20948;-73
2022/05/26 07:06:17;;;;;;;4.37;1.50;;;17.30;99.90;;;;;;5113232;28;20613;-73
2022/05/26 07:08:45;;;;;;;2.03;1.13;;;17.50;99.90;;;;;;5113842;28;21259;-72
2022/05/26 07:11:11;;;;;;;2.10;0.90;;;17.30;99.90;;;;;;5113177;28;20608;-72
2022/05/26 07:13:38;;;;;;;4.70;1.03;;;17.40;99.90;;;;;;5115113;28;20610;-72
2022/05/26 07:16:05;;;;;;;1.20;1.10;;;17.70;99.90;;;;;;5115540;28;20932;-72
2022/05/26 07:18:32;;;;;;;2.20;1.00;;;18.00;99.90;;;;;;5112910;28;20685;-72
2022/05/26 07:21:01;;;;;;;3.10;1.20;;;18.10;99.90;;;;;;5114006;28;20648;-72
2022/05/26 07:23:27;;;;;;;2.77;1.33;;;17.90;99.90;;;;;;5112494;28;20615;-72
2022/05/26 07:25:54;;;;;;;3.20;1.30;;;18.00;99.90;;;;;;5113697;28;20743;-75
2022/05/26 07:28:23;;;;;;;2.50;1.47;;;18.10;99.90;;;;;;5113779;28;20601;-75
2022/05/26 07:30:52;;;;;;;1.60;1.50;;;18.00;99.90;;;;;;5113510;28;20651;-74
2022/05/26 07:33:19;;;;;;;3.10;1.77;;;18.30;99.90;;;;;;5113410;28;20647;-71
2022/05/26 07:35:46;;;;;;;2.00;1.10;;;18.20;99.90;;;;;;5114462;28;20703;-74
2022/05/26 07:41:17;;;;;;;6.63;1.37;;;18.10;99.90;;;;;;5114047;28;20611;-72
2022/05/26 07:43:48;;;;;;;1.67;1.20;;;18.30;99.90;;;;;;5114228;28;20575;-72
2022/05/26 07:46:15;;;;;;;1.17;1.07;;;18.10;99.90;;;;;;5113829;28;20591;-73
2022/05/26 07:48:42;;;;;;;1.53;1.10;;;18.20;99.90;;;;;;5114014;28;20600;-73
2022/05/26 07:51:08;;;;;;;1.50;1.23;;;18.20;99.90;;;;;;5116507;28;20612;-73
2022/05/26 07:53:35;;;;;;;1.63;1.30;;;18.10;99.90;;;;;;5117459;28;20608;-73
2022/05/26 07:56:02;;;;;;;2.20;1.27;;;18.30;99.90;;;;;;5117786;28;20604;-73
2022/05/26 07:58:29;;;;;;;1.33;1.20;;;18.20;99.90;;;;;;5118451;28;20627;-72
2022/05/26 08:00:56;;;;;;;0.93;0.93;;;18.30;99.90;;;;;;5117886;28;20652;-75
2022/05/26 08:03:22;;;;;;;1.20;1.03;;;18.50;99.90;;;;;;5117612;28;20589;-74
2022/05/26 08:05:49;;;;;;;3.67;1.27;;;18.70;99.90;;;;;;5117454;28;20650;-73
2022/05/26 08:08:15;;;;;;;2.97;1.37;;;18.40;99.90;;;;;;5117147;28;20660;-73
2022/05/26 08:10:42;;;;;;;2.10;1.07;;;18.30;99.90;;;;;;5117539;28;20612;-73
2022/05/26 08:13:08;;;;;;;2.20;1.43;;;18.70;99.90;;;;;;5117853;28;20615;-73
2022/05/26 08:15:35;;;;;;;1.97;1.53;;;18.50;99.90;;;;;;5116051;28;20662;-75
2022/05/26 08:18:02;;;;;;;1.50;1.07;;;18.80;99.90;;;;;;5117639;28;20608;-73
2022/05/26 08:20:28;;;;;;;6.30;1.27;;;18.60;99.90;;;;;;5117508;28;20644;-73
2022/05/26 08:22:55;;;;;;;2.70;1.30;;;18.80;99.90;;;;;;5116953;28;20604;-73
2022/05/26 08:25:21;;;;;;;2.40;1.30;;;19.10;99.90;;;;;;5117464;28;20994;-72
2022/05/26 08:27:48;;;;;;;1.77;1.10;;;18.60;99.90;;;;;;5116259;28;20616;-73
2022/05/26 08:30:14;;;;;;;2.50;1.20;;;18.60;99.90;;;;;;5117046;28;20608;-75
2022/05/26 08:32:41;;;;;;;2.20;1.00;;;18.70;99.90;;;;;;5114892;28;21163;-73
2022/05/26 08:35:08;;;;;;;2.10;1.10;;;18.60;99.90;;;;;;5116129;27;20623;-74
2022/05/26 08:37:35;;;;;;;1.60;1.10;;;18.50;99.90;;;;;;5116409;28;20600;-74
2022/05/26 08:40:04;;;;;;;1.77;1.30;;;18.40;99.90;;;;;;5115982;28;21155;-74
2022/05/26 08:42:34;;;;;;;1.40;1.30;;;18.70;99.90;;;;;;5116100;28;20612;-74
2022/05/26 08:45:06;;;;;;;2.30;1.17;;;18.90;99.90;;;;;;5116797;28;20618;-75
2022/05/26 08:47:46;;;;;;;3.07;2.07;;;19.00;99.90;;;;;;5115688;28;21186;-72
2022/05/26 08:50:26;;;;;;;1.80;1.40;;;19.10;99.90;;;;;;5117835;28;21000;-72
2022/05/26 08:53:25;;;;;;;1.00;1.00;;;18.90;99.90;;;;;;5117273;28;20577;-74
2022/05/26 08:55:54;;;;;;;1.47;1.23;;;19.10;99.90;;;;;;5117265;28;21007;-73
2022/05/26 08:58:39;;;;;;;1.30;1.20;;;18.90;99.90;;;;;;5116939;28;20643;-75
2022/05/26 09:01:12;;;;;;;1.00;1.00;;;18.60;99.90;;;;;;5116472;28;20713;-73
2022/05/26 09:03:38;;;;;;;1.33;1.20;;;18.50;99.90;;;;;;5114325;28;21190;-73
2022/05/26 09:06:15;;;;;;;2.30;1.17;;;18.60;99.90;;;;;;5118007;27;20624;-72
2022/05/26 09:14:22;;;;;;;2.03;1.17;;;18.30;99.90;;;;;;5116241;28;20910;-71
2022/05/26 09:16:48;;;;;;;1.20;1.10;;;18.30;99.90;;;;;;5116576;28;20623;-74
2022/05/26 09:19:19;;;;;;;2.30;1.37;;;18.60;99.90;;;;;;5116449;28;20613;-73
2022/05/26 09:21:48;;;;;;;1.47;1.37;;;18.80;99.90;;;;;;5118083;28;21302;-73
2022/05/26 09:24:26;;;;;;;2.50;1.17;;;18.90;99.90;;;;;;5116890;28;20613;-73
2022/05/26 09:27:00;;;;;;;1.20;1.10;;;19.10;99.90;;;;;;5116593;28;20978;-71
2022/05/26 09:29:30;;;;;;;0.93;0.90;;;18.60;99.90;;;;;;5116941;28;20928;-73
2022/05/26 09:32:01;;;;;;;1.57;1.20;;;18.40;99.90;;;;;;5115921;28;20612;-73
2022/05/26 09:34:32;;;;;;;1.43;1.27;;;18.60;99.90;;;;;;5116515;28;21099;-72
2022/05/26 09:37:04;;;;;;;2.30;1.40;;;18.80;99.90;;;;;;5116488;28;20577;-74
2022/05/26 09:39:37;;;;;;;1.47;1.00;;;18.60;99.90;;;;;;5117131;28;20576;-73
2022/05/26 09:42:27;;;;;;;1.10;1.00;;;18.20;99.90;;;;;;5114451;28;20668;-73
2022/05/26 09:44:58;;;;;;;2.93;1.37;;;18.20;99.90;;;;;;5114137;28;20624;-73
2022/05/26 09:47:43;;;;;;;1.30;1.00;;;18.10;99.90;;;;;;5116157;28;20606;-73
2022/05/26 09:50:29;;;;;;;2.40;1.40;;;18.10;99.90;;;;;;5115928;28;20604;-75
2022/05/26 09:52:56;;;;;;;2.40;1.27;;;18.30;99.90;;;;;;5115392;28;21013;-73
2022/05/26 09:55:26;;;;;;;1.83;1.47;;;18.10;99.90;;;;;;5115223;28;20611;-74
2022/05/26 09:58:12;;;;;;;2.50;1.50;;;18.40;99.90;;;;;;5115202;28;20615;-75
2022/05/26 10:00:47;;;;;;;2.50;1.20;;;19.10;99.90;;;;;;5114770;28;20654;-75
2022/05/26 10:03:19;;;;;;;3.20;1.43;;;19.00;99.90;;;;;;5113720;28;20608;-75
2022/05/26 10:06:00;;;;;;;1.87;1.30;;;18.90;99.90;;;;;;5113466;28;20636;-74
2022/05/26 10:08:38;;;;;;;1.80;1.37;;;19.20;99.90;;;;;;5114688;28;20669;-74
2022/05/26 10:11:21;;;;;;;2.20;1.53;;;18.80;99.90;;;;;;5113983;28;20574;-74
2022/05/26 10:14:07;;;;;;;4.80;1.30;;;19.10;99.90;;;;;;5114551;28;20573;-74
2022/05/26 10:16:41;;;;;;;1.80;1.70;;;19.10;99.90;;;;;;5114717;28;20569;-74
2022/05/26 10:19:15;;;;;;;3.30;1.97;;;19.20;99.90;;;;;;5114453;28;20911;-75
2022/05/26 10:22:08;;;;;;;2.40;1.17;;;19.00;99.90;;;;;;5114477;28;20667;-76
2022/05/26 10:25:10;;;;;;;3.87;1.60;;;19.60;99.90;;;;;;5113462;28;20971;-75
2022/05/26 10:27:39;;;;;;;1.57;1.20;;;19.70;99.90;;;;;;5058823;28;20622;-75
2022/05/26 10:30:40;;;;;;;4.00;1.10;;;19.50;99.90;;;;;;5115494;28;20584;-75
2022/05/26 10:33:25;;;;;;;1.77;1.67;;;18.70;99.90;;;;;;5115292;28;20627;-74
2022/05/26 10:35:57;;;;;;;2.80;1.40;;;18.50;99.90;;;;;;5114519;28;20561;-75
2022/05/26 10:38:45;;;;;;;1.40;1.20;;;18.80;99.90;;;;;;5114445;28;20932;-74
2022/05/26 10:41:26;;;;;;;1.63;1.53;;;18.70;99.90;;;;;;5114967;28;20719;-74
2022/05/26 10:44:14;;;;;;;2.37;1.17;;;18.70;99.90;;;;;;5115119;28;20653;-74
2022/05/26 10:46:48;;;;;;;2.50;1.17;;;18.50;99.90;;;;;;5114874;28;20581;-74
2022/05/26 10:49:30;;;;;;;3.90;1.43;;;18.40;99.90;;;;;;5114954;28;20569;-74
2022/05/26 10:52:10;;;;;;;2.90;1.43;;;18.70;99.90;;;;;;5114798;28;20616;-74
2022/05/26 10:54:48;;;;;;;1.40;1.30;;;19.00;99.90;;;;;;5113366;28;20973;-74
2022/05/26 10:57:43;;;;;;;1.00;1.00;;;19.10;99.90;;;;;;5114845;28;20586;-75
2022/05/26 11:00:13;;;;;;;1.47;1.37;;;19.70;99.90;;;;;;5112528;28;21236;-74
2022/05/26 11:02:51;;;;;;;1.20;1.10;;;19.70;99.90;;;;;;5114072;28;20660;-74
2022/05/26 11:05:31;;;;;;;1.80;1.17;;;19.80;99.90;;;;;;5114861;28;20686;-73
2022/05/26 11:08:26;;;;;;;1.60;1.23;;;20.00;99.90;;;;;;5114079;28;20632;-74
2022/05/26 11:11:13;;;;;;;2.20;1.23;;;19.80;99.90;;;;;;5112271;28;20620;-73
2022/05/26 11:17:21;;;;;;;1.30;1.20;;;19.10;99.90;;;;;;5115784;28;20606;-74
2022/05/26 11:19:56;;;;;;;4.53;1.00;;;19.50;99.90;;;;;;5113767;28;20565;-73
2022/05/26 11:22:22;;;;;;;4.90;1.50;;;19.70;99.90;;;;;;5114360;28;20635;-74
2022/05/26 11:24:51;;;;;;;1.40;1.30;;;19.70;99.90;;;;;;5116496;28;20608;-74
2022/05/26 11:27:26;;;;;;;1.40;1.30;;;19.60;99.90;;;;;;5118362;28;20604;-73
2022/05/26 11:29:58;;;;;;;2.17;1.47;;;20.00;99.90;;;;;;5118032;28;20579;-75
2022/05/26 11:38:30;;;;;;;1.13;1.13;;;20.30;99.90;;;;;;5118303;28;20974;-74
2022/05/26 11:40:56;;;;;;;1.53;1.33;;;19.80;99.90;;;;;;5117667;28;21107;-74
2022/05/26 11:43:29;;;;;;;1.87;1.30;;;19.60;99.90;;;;;;5117700;28;20608;-74
2022/05/26 11:45:57;;;;;;;1.50;1.30;;;19.30;99.90;;;;;;5117871;28;20616;-75
2022/05/26 11:48:30;;;;;;;4.13;1.50;;;19.10;99.90;;;;;;5117561;28;20612;-75
2022/05/26 11:51:18;;;;;;;2.40;1.43;;;18.90;99.90;;;;;;5118879;28;20664;-74
2022/05/26 11:53:50;;;;;;;2.60;1.40;;;18.80;99.90;;;;;;5119369;28;20587;-74
2022/05/26 11:56:26;;;;;;;1.63;1.20;;;18.60;99.90;;;;;;5119529;28;20620;-74
2022/05/26 11:59:21;;;;;;;1.37;1.27;;;18.90;99.90;;;;;;5118344;28;21139;-74
2022/05/26 12:01:59;;;;;;;1.10;1.10;;;19.30;99.90;;;;;;5117902;27;20736;-74
2022/05/26 12:04:28;;;;;;;3.07;1.13;;;19.20;99.90;;;;;;5117841;28;21166;-74
2022/05/26 12:07:14;;;;;;;3.03;1.20;;;19.70;99.90;;;;;;5115645;28;20727;-75
2022/05/26 12:09:48;;;;;;;1.43;1.30;;;20.50;99.90;;;;;;5117386;27;21231;-75
2022/05/26 12:12:18;;;;;;;1.00;1.00;;;20.60;99.90;;;;;;5117884;28;20944;-74
2022/05/26 12:15:14;;;;;;;1.97;1.50;;;20.70;99.90;;;;;;5116152;28;20620;-75
2022/05/26 12:17:52;;;;;;;1.70;1.40;;;20.30;99.90;;;;;;5118223;28;20632;-74
2022/05/26 12:20:21;;;;;;;2.43;1.20;;;19.70;99.90;;;;;;5117544;28;20631;-74
2022/05/26 12:22:51;;;;;;;1.43;1.33;;;19.40;99.90;;;;;;5118154;28;20652;-73
2022/05/26 12:25:28;;;;;;;2.13;1.40;;;19.60;99.90;;;;;;5117986;28;20618;-74
2022/05/26 12:28:05;;;;;;;1.77;1.67;;;19.40;99.90;;;;;;5118668;28;20577;-74
2022/05/26 12:30:46;;;;;;;4.53;1.80;;;19.30;99.90;;;;;;5118415;28;20576;-75
2022/05/26 12:33:18;;;;;;;3.00;1.40;;;19.30;99.90;;;;;;5117932;28;20583;-75
2022/05/26 12:36:07;;;;;;;1.60;1.50;;;19.40;99.90;;;;;;5116624;28;20616;-75
2022/05/26 12:39:04;;;;;;;2.80;1.40;;;19.80;99.90;;;;;;5116827;28;20577;-75
2022/05/26 12:42:07;;;;;;;2.20;1.50;;;20.20;99.90;;;;;;5116914;28;20950;-75
2022/05/26 12:45:04;;;;;;;2.50;1.50;;;19.70;99.90;;;;;;5117040;28;20577;-75
2022/05/26 12:47:34;;;;;;;4.63;1.70;;;20.00;99.90;;;;;;5116612;28;21189;-74
2022/05/26 12:50:14;;;;;;;1.80;1.50;;;20.00;99.90;;;;;;5116688;28;20663;-75
2022/05/26 12:52:55;;;;;;;1.67;1.57;;;20.40;99.90;;;;;;5114446;28;20620;-75
2022/05/26 12:55:31;;;;;;;1.60;1.43;;;21.60;99.90;;;;;;5116549;28;20945;-75
2022/05/26 12:58:06;;;;;;;2.00;1.53;;;22.20;99.90;;;;;;5116435;28;20619;-75
2022/05/26 13:00:39;;;;;;;2.00;1.80;;;21.40;99.90;;;;;;5116757;28;20608;-75
2022/05/26 13:03:12;;;;;;;3.37;2.63;;;21.70;99.90;;;;;;5117062;28;20628;-73
2022/05/26 13:05:51;;;;;;;9.00;1.80;;;21.80;99.90;;;;;;5117345;28;20617;-73
2022/05/26 13:08:23;;;;;;;2.33;2.03;;;21.80;99.90;;;;;;5116561;27;20648;-73
2022/05/26 13:10:55;;;;;;;1.50;1.40;;;21.60;99.90;;;;;;5116962;28;21113;-73
2022/05/26 13:13:40;;;;;;;2.50;1.80;;;20.50;99.90;;;;;;5116932;28;20623;-73
2022/05/26 13:16:25;;;;;;;1.87;1.43;;;20.50;99.90;;;;;;5114844;28;20608;-73
2022/05/26 13:19:04;;;;;;;1.60;1.50;;;20.20;99.90;;;;;;5116744;28;20600;-73
2022/05/26 13:21:31;;;;;;;1.67;1.50;;;20.40;99.90;;;;;;5116692;28;21186;-73
2022/05/26 13:23:58;;;;;;;4.50;1.50;;;20.10;99.90;;;;;;5117126;28;21280;-73
2022/05/26 13:26:24;;;;;;;2.03;1.70;;;20.50;99.90;;;;;;5117378;28;20612;-73
2022/05/26 13:28:58;;;;;;;3.50;1.87;;;20.40;99.90;;;;;;5115526;28;21178;-73
2022/05/26 13:34:17;;;;;;;1.90;1.80;;;21.00;99.90;;;;;;5115898;28;20569;-74
2022/05/26 13:36:47;;;;;;;2.53;2.13;;;21.40;99.90;;;;;;5116323;28;20632;-74
2022/05/26 13:39:20;;;;;;;1.90;1.70;;;21.70;99.90;;;;;;5116065;28;20611;-73
2022/05/26 13:41:48;;;;;;;1.90;1.77;;;21.80;99.90;;;;;;5116502;28;20632;-73
2022/05/26 13:44:20;;;;;;;1.67;1.57;;;23.20;99.90;;;;;;5116340;28;20612;-73
2022/05/26 13:46:49;;;;;;;1.77;1.67;;;22.10;99.90;;;;;;5114774;28;20932;-73
2022/05/26 13:49:43;;;;;;;1.83;1.73;;;22.20;99.90;;;;;;5116314;28;20604;-74
2022/05/26 13:52:21;;;;;;;3.47;1.90;;;22.40;99.90;;;;;;5115963;28;20628;-74
2022/05/26 13:54:58;;;;;;;1.73;1.63;;;22.70;99.90;;;;;;5116146;28;20628;-74
2022/05/26 13:57:37;;;;;;;2.37;2.13;;;23.00;99.90;;;;;;5116334;28;20601;-73
2022/05/26 14:00:18;;;;;;;1.90;1.80;;;23.90;99.90;;;;;;5116120;28;20577;-74